createdAt,value
2019-05-20T05:11:45.043Z,998.61
2019-05-20T05:21:47.583Z,998.63
2019-05-20T05:31:44.990Z,998.51
2019-05-20T05:41:45.948Z,998.48
2019-05-20T05:51:45.045Z,998.43
2019-05-20T06:01:44.682Z,998.60
2019-05-20T06:11:45.072Z,998.67
2019-05-20T06:21:45.029Z,998.70
2019-05-20T06:31:46.859Z,998.72
2019-05-20T06:41:45.277Z,998.73
2019-05-20T06:51:45.022Z,998.88
2019-05-20T07:01:44.595Z,998.93
2019-05-20T07:11:52.647Z,998.89
2019-05-20T10:00:53.952Z,998.74
2019-05-20T10:10:53.723Z,998.81
2019-05-20T10:20:53.893Z,998.74
2019-05-20T10:30:52.632Z,998.68
2019-05-20T10:40:53.754Z,998.72
2019-05-20T10:50:53.348Z,998.54
2019-05-20T11:01:02.401Z,998.67
2019-05-20T11:10:54.073Z,998.76
2019-05-20T11:20:53.787Z,998.72
2019-05-20T11:30:55.480Z,998.79
2019-05-20T11:40:55.681Z,998.72
2019-05-20T11:50:54.832Z,998.72
2019-05-20T12:00:54.290Z,998.62
2019-05-20T12:10:55.573Z,998.49
2019-05-20T12:20:53.788Z,998.26
2019-05-20T12:30:56.440Z,998.19
2019-05-20T12:40:54.441Z,997.95
2019-05-20T12:50:56.248Z,997.84
2019-05-20T13:00:54.390Z,997.81
2019-05-20T13:10:55.883Z,997.66
2019-05-20T13:20:53.602Z,997.53
2019-05-20T13:30:54.422Z,997.38
2019-05-20T13:40:54.169Z,997.16
2019-05-20T13:50:55.859Z,997.03
2019-05-20T14:00:53.613Z,996.91
2019-05-20T14:11:03.590Z,996.76
2019-05-20T14:20:54.067Z,996.79
2019-05-20T14:30:53.608Z,996.71
2019-05-20T14:50:55.794Z,996.42
2019-05-20T15:00:54.065Z,996.58
2019-05-20T15:10:55.938Z,996.45
2019-05-20T15:20:53.761Z,996.36
2019-05-20T15:30:54.035Z,996.11
